Crystal Spring, PA (15536)

7:58 AM EDT on August 31, 2015 (GMT -0400)
Cliffside Acres | | Change Station
CLOSE
Current Station
Personal Weather Station
Location: Everett, PA
Elevation: 948 ft
Nearby Weather Stations

Elev 948 ft 40.04 °N, 78.33 °W | Updated 22 seconds ago

Overcast
Overcast
65.7 °F
Feels Like 65.7 °F
N
0.0
Wind Variable Wind from East
Gusts 0.0 mph

Today
High -- | Low -- °F
--% Chance of Precip.
Yesterday
High -- | Low -- °F
Precip. -- in
6:39 AM 7:46 PM
Waning Gibbous, 96% visible
Pressure 30.12 in
Visibility 7.0 miles
Clouds Clear
Dew Point 66 °F
Humidity 99%
Rainfall in
Snow Depth Not available.
UV 0 out of 12
Pollen 10.20 out of 12
Air Quality Not available.
Flu Activity Not available.
METAR KHMZ 311115Z AUTO 00000KT 7SM CLR 18/17 A3012 RMK AO2 T01810165
Pressure 30.12 in
Visibility 7.0 miles
Clouds Clear
Dew Point 66 °F
Humidity 99%
Rainfall in
Snow Depth Not available.
UV 0 out of 12
Pollen 10.20 out of 12
Air Quality Not available.
Flu Activity Not available.
METAR KHMZ 311115Z AUTO 00000KT 7SM CLR 18/17 A3012 RMK AO2 T01810165

10-Day Weather Forecast

×

Almanac

Astronomy

Aug. 31, 2015 Rise Set
Actual Time
Civil Twilight
Nautical Twilight
Astronomical Twilight
Moon
Length of Visible Light
Length of Day
Tomorrow will be .
, % of the Moon is Illuminated

Today's Extremes

State Highs State Lows

Community

WunderPhotos

Upload Photos

1,851,219 photos uploaded!

WunderBlogs® & News

Nearby

Air Quality

  Air Quality AQ Index Pollutant
Not available.

Snow Depth

Station Depth Elevation

Earthquake Activity

City Distance Mag. Time & Date
Minimum magnitude displayed is 2.5.

Coastal Water Temperatures

Place Temperature

Stations

Nearby Weather Stations

Station Location Temp. Windchill Dew Point Humidity Wind Precip. Elev Updated Type